createdAt,value
2019-01-31T00:02:07.126Z,156.03
2019-01-31T00:05:14.391Z,139.90
2019-01-31T00:08:30.864Z,124.03
2019-01-31T00:11:43.775Z,131.63
2019-01-31T00:14:38.109Z,127.27
2019-01-31T00:18:12.977Z,130.27
2019-01-31T00:20:56.166Z,131.27
2019-01-31T00:23:45.832Z,122.10
2019-01-31T00:26:54.724Z,128.73
2019-01-31T00:29:44.617Z,126.50
2019-01-31T00:32:46.056Z,130.70
2019-01-31T00:36:01.030Z,134.40
2019-01-31T00:39:14.194Z,120.03
2019-01-31T00:42:26.473Z,128.30
2019-01-31T00:45:22.712Z,131.50
2019-01-31T00:48:30.916Z,121.43
2019-01-31T00:51:49.459Z,130.87
2019-01-31T00:55:01.578Z,132.27
2019-01-31T00:58:10.866Z,115.27
2019-01-31T01:01:12.107Z,115.87
2019-01-31T01:04:27.406Z,123.70
2019-01-31T01:07:07.953Z,110.40
2019-01-31T01:10:16.121Z,116.80
2019-01-31T01:12:55.123Z,116.70
2019-01-31T01:15:37.871Z,114.60
2019-01-31T01:18:31.213Z,118.40
2019-01-31T01:21:26.260Z,104.20
2019-01-31T01:24:25.741Z,107.57
2019-01-31T01:27:19.675Z,121.07
2019-01-31T01:30:25.954Z,113.47
2019-01-31T01:33:39.056Z,109.77
2019-01-31T01:36:40.569Z,117.87
2019-01-31T01:39:52.345Z,119.07
2019-01-31T01:42:31.714Z,124.87
2019-01-31T01:45:39.465Z,121.40
2019-01-31T01:48:50.453Z,113.63
2019-01-31T01:52:01.743Z,123.20
2019-01-31T01:55:09.402Z,115.27
2019-01-31T02:01:11.340Z,110.83
2019-01-31T02:04:25.009Z,113.73
2019-01-31T02:07:21.625Z,112.60
2019-01-31T02:10:27.276Z,116.33
2019-01-31T02:13:31.890Z,122.43
2019-01-31T02:16:39.914Z,110.27
2019-01-31T02:19:38.669Z,111.63
2019-01-31T02:22:50.113Z,118.90
2019-01-31T02:25:23.157Z,117.50
2019-01-31T02:28:35.718Z,113.10
2019-01-31T02:31:57.738Z,120.17
2019-01-31T02:35:01.361Z,114.93
2019-01-31T02:38:03.399Z,108.07
2019-01-31T02:41:06.145Z,112.67
2019-01-31T02:43:58.317Z,98.37
2019-01-31T02:46:57.068Z,117.20
2019-01-31T02:49:46.810Z,113.77
2019-01-31T02:52:49.047Z,110.90
2019-01-31T03:01:25.449Z,109.27
2019-01-31T03:04:33.426Z,119.63
2019-01-31T03:07:29.420Z,118.60
2019-01-31T03:10:26.444Z,112.40
2019-01-31T03:13:09.915Z,113.57
2019-01-31T03:16:31.234Z,125.77
2019-01-31T03:19:50.668Z,114.47
2019-01-31T03:22:39.707Z,117.23
2019-01-31T03:25:30.442Z,110.97
2019-01-31T03:28:23.867Z,125.23
2019-01-31T03:31:10.536Z,114.27
2019-01-31T03:34:06.530Z,115.17
2019-01-31T03:37:04.956Z,105.80
2019-01-31T03:40:17.818Z,104.87
2019-01-31T03:43:30.863Z,108.77
2019-01-31T03:46:33.849Z,99.10
2019-01-31T03:49:28.552Z,98.50
2019-01-31T03:52:41.310Z,95.17
2019-01-31T03:55:50.837Z,101.50
2019-01-31T03:58:49.587Z,115.73
2019-01-31T04:01:45.745Z,102.70
2019-01-31T04:04:39.508Z,109.87
2019-01-31T04:07:08.052Z,104.10
2019-01-31T04:09:36.826Z,98.93
2019-01-31T04:12:05.374Z,104.47
2019-01-31T04:14:33.946Z,101.37
2019-01-31T04:17:02.566Z,94.73
2019-01-31T04:19:31.236Z,98.00
2019-01-31T04:21:59.648Z,100.03
2019-01-31T04:24:31.035Z,108.10
2019-01-31T04:27:00.438Z,104.90
2019-01-31T04:29:31.356Z,112.97
2019-01-31T04:32:00.493Z,95.77
2019-01-31T04:34:30.835Z,98.80
2019-01-31T04:37:02.561Z,105.60
2019-01-31T04:39:32.939Z,96.37
2019-01-31T04:42:05.103Z,96.03
2019-01-31T04:44:39.715Z,91.17
2019-01-31T04:47:18.286Z,96.90
2019-01-31T04:49:50.807Z,86.43
2019-01-31T04:52:19.412Z,94.87
2019-01-31T04:54:48.786Z,97.23
2019-01-31T04:57:30.175Z,88.07
2019-01-31T05:00:03.263Z,95.33
2019-01-31T05:02:35.987Z,81.80
2019-01-31T05:05:05.174Z,85.73
2019-01-31T05:07:33.512Z,87.27
2019-01-31T05:10:01.832Z,82.97
2019-01-31T05:12:30.983Z,79.37
2019-01-31T05:15:09.519Z,77.23
2019-01-31T05:17:38.214Z,71.93
2019-01-31T05:20:11.323Z,83.60
2019-01-31T05:22:40.993Z,84.27
2019-01-31T05:25:19.822Z,75.87
2019-01-31T05:28:03.260Z,74.80
2019-01-31T05:30:41.150Z,78.17
2019-01-31T11:07:05.811Z,60.37
2019-01-31T11:10:36.440Z,59.60
2019-01-31T11:13:49.369Z,56.60
2019-01-31T11:16:57.844Z,54.63
2019-01-31T11:19:48.237Z,56.23
2019-01-31T11:22:48.264Z,61.67
2019-01-31T11:25:56.534Z,59.33
2019-01-31T11:29:05.049Z,61.53
2019-01-31T11:32:00.453Z,55.23
2019-01-31T11:35:15.785Z,60.30
2019-01-31T11:38:33.869Z,64.27
2019-01-31T11:41:31.001Z,62.17
2019-01-31T11:44:12.454Z,63.37
2019-01-31T11:47:11.712Z,68.43
2019-01-31T11:50:09.267Z,69.70
2019-01-31T11:52:58.501Z,68.53
2019-01-31T11:56:13.776Z,65.20
2019-01-31T11:58:50.057Z,64.50
2019-01-31T12:01:17.806Z,68.97
2019-01-31T12:03:47.294Z,71.77
2019-01-31T12:06:15.068Z,67.07
2019-01-31T12:08:42.809Z,68.13
2019-01-31T12:11:10.778Z,59.77
2019-01-31T12:13:38.533Z,68.53
2019-01-31T12:16:06.157Z,67.30
2019-01-31T12:18:33.883Z,62.80
2019-01-31T12:21:01.772Z,66.83
2019-01-31T12:23:32.277Z,63.07
2019-01-31T12:25:59.115Z,66.40
2019-01-31T12:28:27.024Z,74.70
2019-01-31T12:30:54.829Z,65.87
2019-01-31T12:33:22.701Z,67.27
2019-01-31T12:38:38.903Z,64.40
2019-01-31T12:41:06.748Z,70.03
2019-01-31T12:43:35.572Z,66.50
2019-01-31T12:46:03.330Z,65.93
2019-01-31T12:48:31.253Z,61.37
2019-01-31T12:51:00.251Z,67.70
2019-01-31T12:53:28.607Z,69.50
2019-01-31T12:55:56.496Z,74.70
2019-01-31T12:58:33.308Z,74.03
2019-01-31T13:00:54.323Z,71.60
2019-01-31T13:03:22.404Z,74.43
2019-01-31T13:05:50.465Z,79.70
2019-01-31T13:08:18.567Z,74.27
2019-01-31T13:10:46.724Z,74.97
2019-01-31T13:13:14.853Z,81.20
2019-01-31T13:15:44.386Z,88.73
2019-01-31T13:18:12.462Z,87.23
2019-01-31T13:20:40.729Z,89.10
2019-01-31T13:23:09.836Z,91.83
2019-01-31T13:25:37.781Z,95.43
2019-01-31T13:28:05.745Z,92.93
2019-01-31T13:30:33.732Z,99.40
2019-01-31T13:33:01.540Z,95.17
2019-01-31T13:35:29.486Z,102.50
2019-01-31T13:37:57.353Z,102.27
2019-01-31T13:40:26.382Z,106.47
2019-01-31T13:42:54.858Z,95.63
2019-01-31T13:45:31.389Z,107.33
2019-01-31T13:48:05.300Z,99.63
2019-01-31T13:50:33.568Z,100.60
2019-01-31T13:53:01.430Z,107.27
2019-01-31T13:55:29.864Z,89.90
2019-01-31T13:57:57.769Z,94.97
2019-01-31T14:00:25.780Z,107.03
2019-01-31T14:02:53.929Z,90.73
2019-01-31T14:05:22.121Z,100.83
2019-01-31T14:07:49.951Z,96.20
2019-01-31T14:10:19.780Z,93.10
2019-01-31T14:12:47.715Z,96.43
2019-01-31T14:15:17.257Z,101.67
2019-01-31T14:17:45.267Z,109.40
2019-01-31T14:20:19.210Z,100.60
2019-01-31T14:22:47.199Z,97.47
2019-01-31T14:25:15.063Z,101.97
2019-01-31T14:27:42.801Z,109.07
2019-01-31T14:30:15.136Z,104.33
2019-01-31T14:32:43.265Z,98.13
2019-01-31T14:35:11.050Z,103.33
2019-01-31T14:37:38.983Z,100.13
2019-01-31T14:40:07.159Z,114.93
2019-01-31T14:42:34.954Z,109.53
2019-01-31T14:45:02.903Z,114.83
2019-01-31T14:47:30.955Z,120.27
2019-01-31T14:49:58.756Z,108.63
2019-01-31T14:52:26.542Z,121.63
2019-01-31T14:54:54.708Z,124.27
2019-01-31T14:57:22.472Z,119.73
2019-01-31T14:59:50.239Z,115.97
2019-01-31T15:02:18.552Z,114.17
2019-01-31T15:04:46.827Z,114.07
2019-01-31T15:07:17.249Z,109.17
2019-01-31T15:09:45.565Z,115.73
2019-01-31T15:12:13.821Z,124.53
2019-01-31T15:14:42.618Z,117.63
2019-01-31T15:19:51.415Z,130.20
2019-01-31T15:22:21.127Z,125.07
2019-01-31T15:24:56.717Z,128.53
2019-01-31T15:27:25.673Z,122.53
2019-01-31T15:29:54.484Z,127.87
2019-01-31T15:32:25.566Z,125.27
2019-01-31T15:34:57.656Z,120.47
2019-01-31T15:37:27.382Z,128.10
2019-01-31T15:39:59.528Z,130.63
2019-01-31T15:42:28.788Z,136.90
2019-01-31T15:44:58.032Z,134.70
2019-01-31T15:47:26.307Z,142.07
2019-01-31T15:49:54.611Z,124.97
2019-01-31T15:52:28.168Z,132.65
2019-01-31T15:54:59.855Z,120.50
2019-01-31T15:57:28.229Z,124.97
2019-01-31T15:59:56.344Z,123.23
2019-01-31T16:02:27.030Z,120.90
2019-01-31T16:05:03.931Z,122.47
2019-01-31T16:07:53.694Z,117.97
2019-01-31T16:10:09.286Z,123.67
2019-01-31T16:13:52.904Z,120.17
2019-01-31T16:15:28.042Z,117.17
2019-01-31T16:17:52.727Z,145.67
2019-01-31T16:20:23.250Z,127.87
2019-01-31T16:36:17.833Z,125.47
2019-01-31T16:43:12.318Z,137.23
2019-01-31T16:56:15.632Z,111.63
2019-01-31T16:59:38.902Z,123.97
2019-01-31T17:02:31.499Z,128.77
2019-01-31T17:05:23.567Z,115.90
2019-01-31T17:08:09.076Z,125.57
2019-01-31T17:13:50.555Z,163.00
2019-01-31T17:16:44.327Z,134.17
2019-01-31T17:19:21.837Z,146.60
2019-01-31T17:21:55.611Z,147.33
2019-01-31T17:24:26.330Z,174.73
2019-01-31T17:26:57.741Z,171.70
2019-01-31T17:29:32.197Z,182.37
2019-01-31T17:32:01.690Z,187.27
2019-01-31T17:34:36.289Z,181.20
2019-01-31T17:40:08.276Z,177.03
2019-01-31T17:43:03.540Z,130.30
2019-01-31T17:45:37.049Z,157.53
2019-01-31T17:48:49.882Z,172.43
2019-01-31T17:51:06.208Z,191.83
2019-01-31T17:56:22.631Z,183.17
2019-01-31T17:58:52.132Z,197.77
2019-01-31T18:01:40.128Z,164.10
2019-01-31T18:04:16.883Z,205.10
2019-01-31T18:06:48.036Z,198.87
2019-01-31T18:12:12.425Z,184.33
2019-01-31T18:14:40.991Z,203.80
2019-01-31T18:17:20.758Z,185.07
2019-01-31T18:22:21.657Z,201.90
2019-01-31T18:24:55.709Z,189.17
2019-01-31T18:30:26.685Z,180.05
2019-01-31T18:38:50.570Z,188.83
2019-01-31T18:41:38.671Z,207.80
2019-01-31T18:44:11.131Z,193.33
2019-01-31T18:46:48.506Z,186.83
2019-01-31T18:49:18.241Z,190.13
2019-01-31T18:51:51.004Z,202.87
2019-01-31T18:54:19.381Z,190.87
2019-01-31T18:59:39.953Z,174.50
2019-01-31T19:02:12.525Z,164.57
2019-01-31T19:04:41.564Z,199.47
2019-01-31T19:07:10.466Z,193.20
2019-01-31T19:09:45.167Z,198.20
2019-01-31T19:12:31.068Z,180.33
2019-01-31T19:15:46.480Z,188.13
2019-01-31T19:18:24.876Z,199.67
2019-01-31T19:20:55.714Z,211.00
2019-01-31T19:23:28.572Z,201.30
2019-01-31T19:26:09.523Z,220.20
2019-01-31T19:28:39.446Z,200.37
2019-01-31T19:31:47.721Z,227.57
2019-01-31T19:34:19.149Z,223.57
2019-01-31T19:36:57.449Z,215.60
2019-01-31T19:39:28.976Z,233.73
2019-01-31T19:42:03.644Z,196.37
2019-01-31T19:44:33.512Z,207.40
2019-01-31T19:47:03.050Z,198.80
2019-01-31T19:52:26.306Z,181.20
2019-01-31T19:55:12.017Z,195.83
2019-01-31T19:57:56.197Z,187.83
2019-01-31T20:00:30.693Z,199.27
2019-01-31T20:03:02.103Z,188.63
2019-01-31T20:05:36.150Z,178.83
2019-01-31T20:08:09.301Z,181.20
2019-01-31T20:10:41.114Z,193.60
2019-01-31T20:13:14.021Z,185.93
2019-01-31T20:15:44.886Z,225.53
2019-01-31T20:18:16.277Z,192.33
2019-01-31T20:21:08.911Z,207.63
2019-01-31T20:23:41.699Z,209.27
2019-01-31T20:29:41.663Z,204.00
2019-01-31T20:32:19.809Z,188.67
2019-01-31T20:35:00.342Z,212.47
2019-01-31T20:37:36.815Z,193.40
2019-01-31T20:40:09.711Z,214.67
2019-01-31T20:42:41.023Z,207.97
2019-01-31T20:45:16.738Z,199.03
2019-01-31T20:47:46.707Z,204.37
2019-01-31T20:50:20.715Z,193.30
2019-01-31T20:55:54.026Z,195.47
2019-01-31T20:58:17.789Z,209.47
2019-01-31T21:00:47.413Z,208.17
2019-01-31T21:03:16.023Z,206.73
2019-01-31T21:05:54.105Z,201.07
2019-01-31T21:08:23.565Z,190.13
2019-01-31T21:10:55.094Z,205.43
2019-01-31T21:19:22.152Z,222.53
2019-01-31T21:21:51.327Z,201.37
2019-01-31T21:27:12.091Z,163.90
2019-01-31T21:32:48.335Z,131.77
2019-01-31T21:35:17.311Z,140.43
2019-01-31T21:40:21.024Z,138.53
2019-01-31T21:42:51.370Z,146.57
2019-01-31T21:45:24.221Z,147.20
2019-01-31T21:47:53.797Z,154.13
2019-01-31T21:50:24.429Z,135.43
2019-01-31T21:52:53.526Z,155.97
2019-01-31T21:55:22.511Z,133.90
2019-01-31T21:57:54.855Z,147.00
2019-01-31T22:00:27.933Z,150.43
2019-01-31T22:02:57.606Z,139.97
2019-01-31T22:05:26.780Z,132.33
2019-01-31T22:07:56.521Z,121.27
2019-01-31T22:10:29.435Z,119.93
2019-01-31T22:13:02.726Z,117.93
2019-01-31T22:15:37.274Z,130.53
2019-01-31T22:18:10.383Z,126.70
2019-01-31T22:20:43.961Z,117.37
2019-01-31T22:23:18.175Z,121.77
2019-01-31T22:25:54.876Z,122.37
2019-01-31T22:28:24.332Z,116.30
2019-01-31T22:30:58.274Z,119.17
2019-01-31T22:33:34.323Z,113.97
2019-01-31T22:36:12.931Z,121.37
2019-01-31T22:38:45.556Z,113.07
2019-01-31T22:41:14.705Z,111.27
2019-01-31T22:44:02.272Z,99.60
2019-01-31T22:46:31.938Z,81.53
2019-01-31T22:49:06.372Z,80.77
2019-01-31T22:54:22.690Z,84.57
2019-01-31T22:56:55.227Z,77.27
2019-01-31T22:59:56.745Z,75.13
2019-01-31T23:02:15.559Z,80.90
2019-01-31T23:04:49.433Z,71.40
2019-01-31T23:07:32.345Z,74.60
2019-01-31T23:10:19.714Z,72.67
2019-01-31T23:13:17.733Z,73.27
2019-01-31T23:16:08.961Z,76.00
2019-01-31T23:18:51.898Z,65.23
2019-01-31T23:21:16.930Z,78.90
2019-01-31T23:23:49.116Z,70.60
2019-01-31T23:26:27.352Z,78.90
2019-01-31T23:29:07.570Z,82.77
2019-01-31T23:31:59.979Z,72.87
2019-01-31T23:34:40.077Z,72.73
2019-01-31T23:37:39.724Z,71.17
2019-01-31T23:40:12.636Z,81.57
2019-01-31T23:42:44.243Z,74.67
2019-01-31T23:45:16.062Z,76.70
2019-01-31T23:48:01.830Z,79.70
2019-01-31T23:50:48.270Z,75.77
2019-01-31T23:53:35.037Z,79.37
